createdAt,value
2018-07-05T00:00:10.921Z,99.99
2018-07-05T00:01:10.925Z,99.99
2018-07-05T00:02:10.925Z,99.99
2018-07-05T00:03:11.185Z,99.99
2018-07-05T00:04:10.927Z,99.99
2018-07-05T00:05:11.188Z,99.99
2018-07-05T00:06:10.935Z,99.99
2018-07-05T00:07:11.214Z,99.99
2018-07-05T00:08:11.188Z,99.99
2018-07-05T00:09:11.198Z,99.99
2018-07-05T00:10:10.959Z,99.99
2018-07-05T00:11:11.198Z,99.99
2018-07-05T00:12:10.951Z,99.99
2018-07-05T00:13:10.944Z,99.99
2018-07-05T00:14:10.954Z,99.99
2018-07-05T00:15:10.953Z,99.99
2018-07-05T00:16:11.198Z,99.99
2018-07-05T00:17:11.203Z,99.99
2018-07-05T00:18:10.974Z,99.99
2018-07-05T00:19:10.959Z,99.99
2018-07-05T00:20:11.220Z,99.99
2018-07-05T00:21:11.210Z,99.99
2018-07-05T00:22:10.962Z,99.99
2018-07-05T00:23:10.973Z,99.99
2018-07-05T00:24:11.226Z,99.99
2018-07-05T00:25:11.225Z,99.99
2018-07-05T00:26:10.986Z,99.99
2018-07-05T00:27:11.240Z,99.99
2018-07-05T00:28:11.237Z,99.99
2018-07-05T00:29:11.008Z,99.99
2018-07-05T00:30:11.237Z,99.99
2018-07-05T00:31:11.234Z,99.99
2018-07-05T00:32:11.237Z,99.99
2018-07-05T00:33:11.037Z,99.99
2018-07-05T00:34:11.014Z,99.99
2018-07-05T00:35:11.256Z,99.99
2018-07-05T00:36:11.262Z,99.99
2018-07-05T00:37:11.247Z,99.99
2018-07-05T00:38:11.256Z,99.99
2018-07-05T00:39:10.992Z,99.99
2018-07-05T00:40:11.017Z,99.99
2018-07-05T00:41:11.019Z,99.99
2018-07-05T00:42:11.016Z,99.99
2018-07-05T00:43:11.258Z,99.99
2018-07-05T00:44:11.021Z,99.99
2018-07-05T00:45:11.263Z,99.99
2018-07-05T00:46:11.024Z,99.99
2018-07-05T00:47:11.258Z,99.99
2018-07-05T00:48:11.261Z,99.99
2018-07-05T00:49:11.424Z,99.99
2018-07-05T00:50:11.279Z,99.99
2018-07-05T00:51:11.026Z,99.99
2018-07-05T00:52:11.265Z,99.99
2018-07-05T00:53:11.035Z,99.99
2018-07-05T00:54:11.035Z,99.99
2018-07-05T00:55:11.033Z,99.99
2018-07-05T00:56:11.039Z,99.99
2018-07-05T00:57:11.280Z,99.99
2018-07-05T00:58:11.282Z,99.99
2018-07-05T00:59:11.283Z,99.99
2018-07-05T01:00:11.286Z,99.99
2018-07-05T01:01:11.039Z,99.99
2018-07-05T01:02:11.046Z,99.99
2018-07-05T01:03:11.300Z,99.99
2018-07-05T01:04:11.294Z,99.99
2018-07-05T01:05:11.292Z,99.99
2018-07-05T01:06:11.048Z,99.99
2018-07-05T01:07:11.296Z,99.99
2018-07-05T01:08:11.304Z,99.99
2018-07-05T01:09:11.321Z,99.99
2018-07-05T01:10:12.096Z,99.99
2018-07-05T01:11:11.297Z,99.99
2018-07-05T01:12:11.061Z,99.99
2018-07-05T01:13:11.065Z,99.99
2018-07-05T01:14:11.325Z,99.99
2018-07-05T01:15:12.109Z,99.99
2018-07-05T01:16:11.068Z,99.99
2018-07-05T01:17:11.066Z,99.99
2018-07-05T01:18:11.085Z,99.99
2018-07-05T01:19:11.321Z,99.99
2018-07-05T01:20:11.332Z,99.99
2018-07-05T01:21:11.072Z,99.99
2018-07-05T01:22:11.320Z,99.99
2018-07-05T01:23:11.340Z,99.99
2018-07-05T01:24:11.083Z,99.99
2018-07-05T01:25:11.328Z,99.99
2018-07-05T01:26:11.328Z,99.99
2018-07-05T01:27:11.077Z,99.99
2018-07-05T01:28:11.087Z,99.99
2018-07-05T01:29:11.102Z,99.99
2018-07-05T01:30:11.089Z,99.99
2018-07-05T01:31:11.344Z,99.99
2018-07-05T01:32:11.340Z,99.99
2018-07-05T01:33:11.092Z,99.99
2018-07-05T01:34:11.359Z,99.99
2018-07-05T01:35:11.093Z,99.99
2018-07-05T01:36:11.357Z,99.99
2018-07-05T01:37:11.105Z,99.99
2018-07-05T01:38:11.361Z,99.99
2018-07-05T01:39:11.377Z,99.99
2018-07-05T01:40:11.378Z,99.99
2018-07-05T01:41:11.112Z,99.99
2018-07-05T01:42:11.363Z,99.99
2018-07-05T01:43:11.126Z,99.99
2018-07-05T01:44:11.101Z,99.99
2018-07-05T01:45:11.117Z,99.99
2018-07-05T01:46:11.367Z,99.99
2018-07-05T01:47:11.474Z,99.99
2018-07-05T01:48:11.109Z,99.99
2018-07-05T01:49:11.366Z,99.99
2018-07-05T01:50:11.367Z,99.99
2018-07-05T01:51:11.368Z,99.99
2018-07-05T01:52:11.382Z,99.99
2018-07-05T01:53:11.371Z,99.99
2018-07-05T01:54:11.133Z,99.99
2018-07-05T01:55:11.142Z,99.99
2018-07-05T01:56:11.144Z,99.99
2018-07-05T01:57:11.398Z,99.99
2018-07-05T01:58:11.375Z,99.99
2018-07-05T01:59:11.428Z,99.99
2018-07-05T02:00:11.147Z,99.99
2018-07-05T02:01:11.403Z,99.99
2018-07-05T02:02:11.389Z,99.99
2018-07-05T02:03:11.389Z,99.99
2018-07-05T02:04:11.391Z,99.99
2018-07-05T02:05:11.388Z,99.99
2018-07-05T02:06:11.394Z,99.99
2018-07-05T02:07:11.143Z,99.99
2018-07-05T02:08:11.389Z,99.99
2018-07-05T02:09:11.391Z,99.99
2018-07-05T02:10:11.413Z,99.99
2018-07-05T02:11:11.390Z,99.99
2018-07-05T02:12:11.395Z,99.99
2018-07-05T02:13:11.140Z,99.99
2018-07-05T02:14:11.408Z,99.99
2018-07-05T02:15:11.149Z,99.99
2018-07-05T02:16:12.506Z,99.99
2018-07-05T02:17:11.149Z,99.99
2018-07-05T02:18:11.157Z,99.99
2018-07-05T02:19:11.401Z,99.99
2018-07-05T02:20:11.412Z,99.99
2018-07-05T02:21:11.412Z,99.99
2018-07-05T02:22:11.413Z,99.99
2018-07-05T02:23:11.417Z,99.99
2018-07-05T02:24:11.433Z,99.99
2018-07-05T02:25:11.159Z,99.99
2018-07-05T02:26:11.195Z,99.99
2018-07-05T02:27:11.425Z,99.99
2018-07-05T02:28:11.418Z,99.99
2018-07-05T02:29:11.178Z,99.99
2018-07-05T02:30:11.177Z,99.99
2018-07-05T02:31:11.431Z,99.99
2018-07-05T02:32:11.180Z,99.99
2018-07-05T02:33:11.432Z,99.99
2018-07-05T02:34:11.449Z,99.99
2018-07-05T02:35:11.439Z,99.99
2018-07-05T02:36:11.441Z,99.99
2018-07-05T02:37:11.196Z,99.99
2018-07-05T02:38:11.443Z,99.99
2018-07-05T02:39:11.458Z,99.99
2018-07-05T02:40:11.203Z,99.99
2018-07-05T02:41:11.440Z,99.99
2018-07-05T02:42:11.198Z,99.99
2018-07-05T02:43:11.499Z,99.99
2018-07-05T02:44:11.444Z,99.99
2018-07-05T02:45:11.442Z,99.99
2018-07-05T02:46:11.462Z,99.99
2018-07-05T02:47:11.493Z,99.99
2018-07-05T02:48:11.468Z,99.99
2018-07-05T02:49:11.463Z,99.99
2018-07-05T02:50:11.478Z,99.99
2018-07-05T02:51:11.464Z,99.99
2018-07-05T02:52:11.463Z,99.99
2018-07-05T02:53:11.460Z,99.99
2018-07-05T02:54:11.469Z,99.99
2018-07-05T02:55:11.464Z,99.99
2018-07-05T02:56:11.475Z,99.99
2018-07-05T02:57:11.467Z,99.99
2018-07-05T02:58:11.228Z,99.99
2018-07-05T02:59:11.227Z,99.99
2018-07-05T03:00:11.474Z,99.99
2018-07-05T03:01:11.465Z,99.99
2018-07-05T03:02:11.221Z,99.99
2018-07-05T03:03:11.475Z,99.99
2018-07-05T03:04:11.226Z,99.99
2018-07-05T03:05:11.472Z,99.99
2018-07-05T03:06:11.218Z,99.99
2018-07-05T03:07:11.480Z,99.99
2018-07-05T03:08:11.507Z,99.99
2018-07-05T03:09:11.237Z,99.99
2018-07-05T03:10:11.500Z,99.99
2018-07-05T03:11:11.228Z,99.99
2018-07-05T03:12:11.487Z,99.99
2018-07-05T03:13:11.482Z,99.99
2018-07-05T03:14:11.568Z,99.99
2018-07-05T03:15:11.502Z,99.99
2018-07-05T03:16:11.237Z,99.99
2018-07-05T03:17:11.569Z,99.99
2018-07-05T03:18:11.491Z,99.99
2018-07-05T03:19:11.507Z,99.99
2018-07-05T03:20:11.480Z,99.99
2018-07-05T03:21:11.490Z,99.99
2018-07-05T03:22:11.504Z,99.99
2018-07-05T03:23:11.508Z,99.99
2018-07-05T03:24:11.233Z,99.99
2018-07-05T03:25:11.505Z,99.99
2018-07-05T03:26:11.486Z,99.99
2018-07-05T03:27:11.246Z,99.99
2018-07-05T03:28:11.244Z,99.99
2018-07-05T03:29:11.496Z,99.99
2018-07-05T03:30:11.513Z,99.99
2018-07-05T03:31:11.510Z,99.99
2018-07-05T03:32:11.512Z,99.99
2018-07-05T03:33:11.254Z,99.99
2018-07-05T03:34:11.253Z,99.99
2018-07-05T03:35:11.514Z,99.99
2018-07-05T03:36:11.524Z,99.99
2018-07-05T03:37:11.517Z,99.99
2018-07-05T03:38:11.508Z,99.99
2018-07-05T03:39:11.525Z,99.99
2018-07-05T03:40:11.517Z,99.99
2018-07-05T03:41:11.512Z,99.99
2018-07-05T03:42:11.523Z,99.99
2018-07-05T03:43:11.528Z,99.99
2018-07-05T03:44:11.503Z,99.99
2018-07-05T03:45:11.262Z,99.99
2018-07-05T03:46:11.537Z,99.99
2018-07-05T03:47:11.522Z,99.99
2018-07-05T03:48:11.541Z,99.99
2018-07-05T03:49:11.546Z,99.99
2018-07-05T03:50:11.525Z,99.99
2018-07-05T03:51:11.519Z,99.99
2018-07-05T03:52:11.278Z,99.99
2018-07-05T03:53:11.521Z,99.99
2018-07-05T03:54:11.274Z,99.99
2018-07-05T03:55:11.537Z,99.99
2018-07-05T03:56:11.523Z,99.99
2018-07-05T03:57:11.520Z,99.99
2018-07-05T03:58:11.550Z,99.99
2018-07-05T03:59:11.523Z,99.99
2018-07-05T04:00:11.276Z,99.99
2018-07-05T04:01:11.286Z,99.99
2018-07-05T04:02:11.279Z,99.99
2018-07-05T04:03:11.525Z,99.99
2018-07-05T04:04:11.543Z,99.99
2018-07-05T04:05:11.273Z,99.99
2018-07-05T04:06:11.546Z,99.99
2018-07-05T04:07:11.542Z,99.99
2018-07-05T04:08:11.561Z,99.99
2018-07-05T04:09:11.283Z,99.99
2018-07-05T04:10:11.543Z,99.99
2018-07-05T04:11:11.547Z,99.99
2018-07-05T04:12:11.296Z,99.99
2018-07-05T04:13:11.551Z,99.99
2018-07-05T04:14:11.551Z,99.99
2018-07-05T04:15:11.562Z,99.99
2018-07-05T04:16:11.567Z,99.99
2018-07-05T04:17:11.319Z,99.99
2018-07-05T04:18:11.581Z,99.99
2018-07-05T04:19:11.566Z,99.99
2018-07-05T04:20:11.564Z,99.99
2018-07-05T04:21:11.580Z,99.99
2018-07-05T04:22:11.588Z,99.99
2018-07-05T04:23:11.569Z,99.99
2018-07-05T04:24:11.734Z,99.99
2018-07-05T04:25:11.613Z,99.99
2018-07-05T04:26:11.317Z,99.99
2018-07-05T04:27:11.335Z,99.99
2018-07-05T04:28:11.576Z,99.99
2018-07-05T04:29:11.580Z,99.99
2018-07-05T04:30:11.337Z,99.99
2018-07-05T04:31:11.334Z,99.99
2018-07-05T04:32:11.335Z,99.99
2018-07-05T04:33:11.586Z,99.99
2018-07-05T04:34:11.734Z,99.99
2018-07-05T04:35:11.590Z,99.99
2018-07-05T04:36:11.590Z,99.99
2018-07-05T04:37:11.594Z,99.99
2018-07-05T04:38:11.597Z,99.99
2018-07-05T04:39:11.346Z,99.64
2018-07-05T04:40:11.369Z,98.25
2018-07-05T04:41:11.601Z,98.34
2018-07-05T04:42:11.375Z,98.54
2018-07-05T04:43:11.610Z,99.02
2018-07-05T04:44:11.627Z,98.49
2018-07-05T04:45:11.617Z,96.31
2018-07-05T04:46:11.649Z,95.64
2018-07-05T04:47:11.623Z,94.14
2018-07-05T04:48:11.633Z,92.41
2018-07-05T04:49:11.635Z,90.91
2018-07-05T04:50:11.638Z,89.94
2018-07-05T04:51:11.633Z,89.55
2018-07-05T04:52:11.636Z,89.55
2018-07-05T04:53:11.659Z,89.36
2018-07-05T04:54:11.657Z,88.83
2018-07-05T04:55:11.403Z,90.09
2018-07-05T04:56:11.669Z,89.47
2018-07-05T04:57:11.665Z,90.23
2018-07-05T04:58:11.659Z,91.74
2018-07-05T04:59:11.672Z,93.57
2018-07-05T05:00:11.674Z,95.01
2018-07-05T05:01:11.423Z,96.66
2018-07-05T05:02:11.677Z,98.82
2018-07-05T05:03:11.683Z,99.99
2018-07-05T05:04:11.698Z,99.99
2018-07-05T05:05:11.698Z,99.99
2018-07-05T05:06:11.440Z,99.99
2018-07-05T05:07:11.439Z,99.99
2018-07-05T05:08:11.698Z,99.99
2018-07-05T05:09:11.715Z,99.99
2018-07-05T05:10:11.445Z,99.99
2018-07-05T05:11:11.709Z,99.99
2018-07-05T05:12:11.711Z,99.99
2018-07-05T05:13:11.719Z,99.99
2018-07-05T05:14:11.709Z,99.99
2018-07-05T05:15:11.717Z,99.99
2018-07-05T05:16:11.716Z,99.99
2018-07-05T05:17:11.732Z,99.99
2018-07-05T05:18:11.482Z,99.99
2018-07-05T05:19:11.730Z,99.99
2018-07-05T05:20:11.726Z,99.99
2018-07-05T05:21:11.727Z,99.99
2018-07-05T05:22:11.478Z,99.99
2018-07-05T05:23:11.487Z,99.99
2018-07-05T05:24:11.800Z,99.99
2018-07-05T05:25:11.743Z,99.99
2018-07-05T05:26:11.743Z,99.99
2018-07-05T05:27:11.742Z,99.99
2018-07-05T05:28:11.749Z,99.99
2018-07-05T05:29:11.745Z,99.99
2018-07-05T05:30:11.748Z,99.99
2018-07-05T05:31:11.754Z,99.99
2018-07-05T05:32:11.755Z,99.99
2018-07-05T05:33:11.508Z,99.99
2018-07-05T05:34:11.514Z,99.99
2018-07-05T05:35:11.775Z,99.99
2018-07-05T05:36:11.778Z,99.99
2018-07-05T05:37:11.516Z,99.99
2018-07-05T05:38:11.530Z,99.99
2018-07-05T05:39:11.528Z,99.99
2018-07-05T05:40:11.771Z,99.99
2018-07-05T05:41:11.772Z,99.99
2018-07-05T05:42:11.781Z,99.99
2018-07-05T05:43:11.780Z,99.99
2018-07-05T05:44:11.776Z,99.99
2018-07-05T05:45:11.534Z,99.99
2018-07-05T05:46:11.783Z,99.99
2018-07-05T05:47:13.282Z,99.99
2018-07-05T05:48:11.937Z,99.99
2018-07-05T05:49:11.787Z,99.99
2018-07-05T05:50:11.791Z,99.99
2018-07-05T05:51:11.799Z,99.99
2018-07-05T05:52:11.797Z,99.99
2018-07-05T05:53:11.541Z,99.99
2018-07-05T05:54:11.835Z,99.99
2018-07-05T05:55:11.799Z,99.99
2018-07-05T05:56:11.802Z,99.99
2018-07-05T05:57:11.802Z,99.99
2018-07-05T05:58:11.551Z,99.99
2018-07-05T05:59:11.553Z,99.99
2018-07-05T06:00:11.556Z,99.99
2018-07-05T06:01:11.825Z,99.99
2018-07-05T06:02:11.825Z,99.99
2018-07-05T06:03:11.816Z,99.99
2018-07-05T06:04:11.818Z,99.99
2018-07-05T06:05:11.578Z,99.99
2018-07-05T06:06:11.861Z,99.99
2018-07-05T06:07:11.590Z,99.99
2018-07-05T06:08:11.649Z,99.99
2018-07-05T06:09:11.832Z,99.99
2018-07-05T06:10:11.588Z,99.99
2018-07-05T06:11:11.594Z,99.99
2018-07-05T06:12:11.596Z,99.99
2018-07-05T06:13:11.617Z,99.99
2018-07-05T06:14:11.598Z,99.79
2018-07-05T06:24:29.454Z,95.83
2018-07-05T06:25:29.513Z,95.64
2018-07-05T06:26:29.456Z,95.54
2018-07-05T06:27:29.456Z,94.87
2018-07-05T06:28:29.459Z,94
2018-07-05T06:29:29.458Z,93.42
2018-07-05T06:30:29.458Z,91.59
2018-07-05T06:31:29.240Z,90.91
2018-07-05T06:32:29.230Z,90.09
2018-07-05T06:33:29.477Z,89.22
2018-07-05T06:34:29.484Z,88.64
2018-07-05T06:35:29.470Z,89.12
2018-07-05T06:36:29.492Z,89.41
2018-07-05T06:37:29.478Z,88.54
2018-07-05T06:38:29.232Z,87.52
2018-07-05T06:39:29.613Z,88.39
2018-07-05T06:40:29.494Z,88.29
2018-07-05T06:41:29.488Z,86.65
2018-07-05T06:42:29.495Z,87.81
2018-07-05T06:43:29.505Z,85.11
2018-07-05T06:44:29.252Z,85.98
2018-07-05T06:45:29.506Z,84.63
2018-07-05T06:46:29.508Z,84.67
2018-07-05T06:47:29.558Z,84.67
2018-07-05T06:48:29.513Z,82.93
2018-07-05T06:49:29.307Z,81.32
2018-07-05T06:50:29.281Z,81.52
2018-07-05T06:51:29.285Z,80.84
2018-07-05T06:52:29.536Z,80.07
2018-07-05T06:53:29.541Z,78.52
2018-07-05T06:54:29.538Z,79.04
2018-07-05T06:55:29.549Z,76.33
2018-07-05T06:56:29.560Z,75.02
2018-07-05T06:57:29.558Z,71.99
2018-07-05T06:58:29.304Z,69.12
2018-07-05T06:59:29.559Z,66.86
2018-07-05T07:00:29.316Z,66.5
2018-07-05T07:01:29.571Z,65.14
2018-07-05T07:02:29.596Z,65.24
2018-07-05T07:03:29.327Z,64.85
2018-07-05T07:04:29.334Z,66.11
2018-07-05T07:05:29.590Z,67.83
2018-07-05T07:06:29.597Z,67.4
2018-07-05T07:07:29.647Z,67.5
2018-07-05T07:08:29.606Z,68.96
2018-07-05T07:09:29.363Z,69.21
2018-07-05T07:10:29.625Z,69.89
2018-07-05T07:11:29.628Z,69.85
2018-07-05T07:12:29.377Z,69.95
2018-07-05T07:13:29.637Z,70.25
2018-07-05T07:14:29.388Z,70.21
2018-07-05T07:15:29.645Z,71.18
2018-07-05T07:16:29.649Z,70.11
2018-07-05T07:17:29.653Z,69.82
2018-07-05T07:18:29.671Z,69.69
2018-07-05T07:19:29.664Z,70.08
2018-07-05T07:20:29.425Z,69.98
2018-07-05T07:21:29.707Z,69.01
2018-07-05T07:22:29.679Z,68.05
2018-07-05T07:23:29.684Z,67.85
2018-07-05T07:24:29.690Z,67.5
2018-07-05T07:25:29.704Z,66.66
2018-07-05T07:26:29.699Z,65.53
2018-07-05T07:27:29.712Z,61.61
2018-07-05T07:28:29.706Z,60.58
2018-07-05T07:29:29.469Z,58.54
2018-07-05T07:30:29.744Z,59.34
2018-07-05T07:31:30.180Z,57.79
2018-07-05T07:32:29.477Z,58.44
2018-07-05T07:33:29.736Z,58.83
2018-07-05T07:34:29.744Z,59.19
2018-07-05T07:35:29.505Z,59.84
2018-07-05T07:36:29.501Z,59.55
2018-07-05T07:37:29.895Z,60.58
2018-07-05T07:38:29.513Z,60.97
2018-07-05T07:39:29.517Z,61.62
2018-07-05T07:40:29.781Z,62.01
2018-07-05T07:41:29.532Z,62.1
2018-07-05T07:42:29.532Z,62.2
2018-07-05T07:43:29.535Z,62.95
2018-07-05T07:44:29.795Z,62.75
2018-07-05T07:45:30.051Z,62.95
2018-07-05T07:46:29.554Z,61.59
2018-07-05T07:47:29.803Z,62.24
2018-07-05T07:48:29.815Z,63.01
2018-07-05T07:49:29.568Z,62.92
2018-07-05T07:50:29.584Z,62.72
2018-07-05T07:51:29.581Z,63.11
2018-07-05T07:52:29.834Z,63.49
2018-07-05T07:53:29.842Z,63.49
2018-07-05T07:54:29.590Z,63.31
2018-07-05T07:55:29.690Z,62.72
2018-07-05T07:56:29.858Z,62.63
2018-07-05T07:57:29.863Z,63.01
2018-07-05T07:58:29.866Z,63.31
2018-07-05T07:59:29.613Z,62.72
2018-07-05T08:00:29.631Z,62.92
2018-07-05T08:01:29.878Z,62.82
2018-07-05T08:02:29.887Z,63.56
2018-07-05T08:03:29.889Z,64.53
2018-07-05T08:04:29.888Z,64.14
2018-07-05T08:05:29.909Z,64.82
2018-07-05T08:06:29.909Z,64.34
2018-07-05T08:07:29.917Z,64.92
2018-07-05T08:08:29.656Z,64.92
2018-07-05T08:09:29.675Z,64.92
2018-07-05T08:10:29.914Z,65.5
2018-07-05T08:11:29.934Z,65.11
2018-07-05T08:12:29.927Z,65.79
2018-07-05T08:13:29.680Z,66.08
2018-07-05T08:14:29.945Z,65.3
2018-07-05T08:15:29.687Z,66.14
2018-07-05T08:16:29.698Z,65.4
2018-07-05T08:17:29.957Z,66.27
2018-07-05T08:18:29.970Z,66.08
2018-07-05T08:19:29.982Z,65.98
2018-07-05T08:20:29.755Z,64.92
2018-07-05T08:21:29.716Z,65.3
2018-07-05T08:22:29.985Z,65.5
2018-07-05T08:23:29.979Z,65.11
2018-07-05T08:24:29.727Z,64.72
2018-07-05T08:25:29.736Z,64.95
2018-07-05T08:26:29.734Z,65.79
2018-07-05T08:27:29.994Z,64.95
2018-07-05T08:28:29.995Z,64.95
2018-07-05T08:29:30.022Z,65.59
2018-07-05T08:30:29.767Z,65.4
2018-07-05T08:31:29.794Z,64.95
2018-07-05T08:32:30.030Z,64.95
2018-07-05T08:33:30.028Z,65.05
2018-07-05T08:34:29.788Z,63.11
2018-07-05T08:35:30.056Z,63.31
2018-07-05T08:36:30.049Z,63.79
2018-07-05T08:37:30.038Z,63.59
2018-07-05T08:38:30.054Z,64.07
2018-07-05T08:39:30.049Z,64.4
2018-07-05T08:40:30.052Z,64.3
2018-07-05T08:41:30.062Z,63.62
2018-07-05T08:42:30.066Z,63.24
2018-07-05T08:43:29.804Z,64.11
2018-07-05T08:44:30.083Z,65.17
2018-07-05T08:45:30.072Z,64.89
2018-07-05T08:46:30.075Z,64.69
2018-07-05T08:47:29.828Z,64.3
2018-07-05T08:48:30.106Z,63.82
2018-07-05T08:49:30.082Z,63.53
2018-07-05T08:50:30.096Z,63.34
2018-07-05T08:51:29.850Z,63.62
2018-07-05T08:52:30.124Z,63.24
2018-07-05T08:53:30.109Z,63.24
2018-07-05T08:54:30.119Z,62.85
2018-07-05T08:55:30.123Z,62.85
2018-07-05T08:56:30.126Z,64.11
2018-07-05T08:57:30.131Z,63.89
2018-07-05T08:58:30.131Z,64.37
2018-07-05T08:59:30.156Z,65.24
2018-07-05T09:00:30.143Z,65.24
2018-07-05T09:01:29.890Z,64.66
2018-07-05T09:02:30.157Z,64.92
2018-07-05T09:03:30.148Z,64.14
2018-07-05T09:04:30.163Z,64.37
2018-07-05T09:05:30.172Z,63.79
2018-07-05T09:06:30.169Z,64.56
2018-07-05T09:07:30.168Z,64.37
2018-07-05T09:08:30.184Z,64.01
2018-07-05T09:09:30.177Z,63.62
2018-07-05T09:10:30.195Z,63.56
2018-07-05T09:11:30.193Z,62.98
2018-07-05T09:12:29.970Z,62.59
2018-07-05T09:13:29.962Z,61.62
2018-07-05T09:14:30.195Z,61.52
2018-07-05T09:15:29.968Z,61.43
2018-07-05T09:16:29.963Z,61.33
2018-07-05T09:17:30.079Z,61.82
2018-07-05T09:18:30.100Z,61.91
2018-07-05T09:19:29.978Z,61.85
2018-07-05T09:20:30.229Z,61.36
2018-07-05T09:21:29.993Z,62.72
2018-07-05T09:22:29.983Z,62.62
2018-07-05T09:23:30.755Z,63.1
2018-07-05T09:24:30.030Z,62.3
2018-07-05T09:25:30.251Z,63.37
2018-07-05T09:26:30.255Z,62.98
2018-07-05T09:27:30.259Z,63.72
2018-07-05T09:28:30.055Z,63.72
2018-07-05T09:29:30.033Z,64.11
2018-07-05T09:30:30.282Z,64.01
2018-07-05T09:31:30.042Z,64.89
2018-07-05T09:32:30.285Z,64.98
2018-07-05T09:33:30.040Z,65.27
2018-07-05T09:34:30.051Z,64.34
2018-07-05T09:35:30.311Z,63.85
2018-07-05T09:36:30.058Z,63.27
2018-07-05T09:37:30.368Z,62.98
2018-07-05T09:38:30.068Z,63.75
2018-07-05T09:39:30.320Z,63.85
2018-07-05T09:40:30.334Z,63.92
2018-07-05T09:41:30.080Z,63.62
2018-07-05T09:42:30.333Z,63.62
2018-07-05T09:43:30.336Z,64.69
2018-07-05T09:44:30.339Z,64.92
2018-07-05T09:45:30.098Z,65.08
2018-07-05T09:46:30.099Z,65.75
2018-07-05T09:47:30.104Z,65.47
2018-07-05T09:48:30.107Z,65.08
2018-07-05T09:49:30.408Z,66.05
2018-07-05T09:50:30.122Z,65.95
2018-07-05T09:51:30.402Z,66.63
2018-07-05T09:52:30.608Z,66.14
2018-07-05T09:53:30.389Z,67.11
2018-07-05T09:54:30.148Z,67.46
2018-07-05T09:55:30.392Z,68.05
2018-07-05T09:56:30.396Z,68.49
2018-07-05T09:57:30.399Z,70.04
2018-07-05T09:58:30.411Z,71.17
2018-07-05T09:59:30.149Z,72.14
2018-07-05T10:00:30.429Z,72.52
2018-07-05T10:01:30.419Z,72.72
2018-07-05T10:02:30.420Z,73.55
2018-07-05T10:03:30.566Z,73.46
2018-07-05T10:04:30.174Z,73.36
2018-07-05T10:05:30.432Z,73.07
2018-07-05T10:06:30.184Z,73.26
2018-07-05T10:07:30.434Z,73.74
2018-07-05T10:08:30.443Z,73.84
2018-07-05T10:09:30.447Z,73.65
2018-07-05T10:10:30.453Z,73.65
2018-07-05T10:11:30.456Z,73.65
2018-07-05T10:12:30.203Z,73.84
2018-07-05T10:13:30.361Z,74.04
2018-07-05T10:14:30.484Z,74.42
2018-07-05T10:15:30.228Z,74.71
2018-07-05T10:16:30.216Z,75.48
2018-07-05T10:17:30.221Z,76.26
2018-07-05T10:18:30.485Z,76.84
2018-07-05T10:19:30.663Z,76.64
2018-07-05T10:20:30.507Z,78
2018-07-05T10:21:30.486Z,79.16
2018-07-05T10:22:30.240Z,79.64
2018-07-05T10:53:59.839Z,99.99
2018-07-05T10:54:59.566Z,99.99
2018-07-05T10:55:59.851Z,99.99
2018-07-05T10:56:59.859Z,99.99
2018-07-05T10:57:59.851Z,99.99
2018-07-05T10:58:59.851Z,99.99
2018-07-05T10:59:59.848Z,99.99
2018-07-05T11:00:59.617Z,99.99
2018-07-05T11:01:59.862Z,99.99
2018-07-05T11:02:59.855Z,99.99
2018-07-05T11:03:59.848Z,99.99
2018-07-05T11:04:59.849Z,99.99
2018-07-05T11:05:59.837Z,99.99
2018-07-05T11:06:59.840Z,99.99
2018-07-05T11:07:59.871Z,99.99
2018-07-05T11:08:59.861Z,99.99
2018-07-05T11:09:59.851Z,99.99
2018-07-05T11:10:59.839Z,99.99
2018-07-05T11:11:59.865Z,99.99
2018-07-05T11:12:59.601Z,99.99
2018-07-05T11:13:59.589Z,99.99
2018-07-05T11:14:59.888Z,99.99
2018-07-05T11:15:59.858Z,99.99
2018-07-05T11:16:59.604Z,99.99
2018-07-05T11:17:59.610Z,99.99
2018-07-05T11:18:59.872Z,99.99
2018-07-05T11:19:59.884Z,98.87
2018-07-05T11:20:59.714Z,97.14
2018-07-05T11:21:59.884Z,98.1
2018-07-05T11:22:59.914Z,99.07
2018-07-05T11:23:59.889Z,96.89
2018-07-05T11:24:59.904Z,99.74
2018-07-05T11:25:59.884Z,99.99
2018-07-05T11:26:59.902Z,98.73
2018-07-05T11:27:59.887Z,97.96
2018-07-05T11:28:59.899Z,97.96
2018-07-05T11:29:59.896Z,99.99
2018-07-05T11:30:59.658Z,98.34
2018-07-05T11:31:59.926Z,97.47
2018-07-05T11:32:59.923Z,95.64
2018-07-05T11:33:59.652Z,93.23
2018-07-05T11:34:59.916Z,95.54
2018-07-05T11:35:59.929Z,97.04
2018-07-05T11:36:59.663Z,94.62
2018-07-05T11:37:59.935Z,95.78
2018-07-05T11:38:59.959Z,95.3
2018-07-05T11:39:59.932Z,90.09
2018-07-05T11:40:59.938Z,90.09
2018-07-05T11:41:59.679Z,91.05
2018-07-05T11:42:59.944Z,89.99
2018-07-05T11:43:59.695Z,90.95
2018-07-05T11:44:59.963Z,91.53
2018-07-05T11:45:59.957Z,90.09
2018-07-05T11:46:59.968Z,91.05
2018-07-05T11:48:00.077Z,91.35
2018-07-05T11:48:59.716Z,89.99
2018-07-05T11:49:59.964Z,90.09
2018-07-05T11:51:00.058Z,90.77
2018-07-05T11:51:59.724Z,90.09
2018-07-05T11:52:59.987Z,89.03
2018-07-05T11:54:00.786Z,87.87
2018-07-05T11:54:59.984Z,87.29
2018-07-05T11:55:59.730Z,87.53
2018-07-05T11:56:59.762Z,87.87
2018-07-05T11:57:59.998Z,88.35
2018-07-05T11:58:59.761Z,90.05
2018-07-05T12:00:00.008Z,89.47
2018-07-05T12:01:00.045Z,89.85
2018-07-05T12:02:00.120Z,91.01
2018-07-05T12:03:00.201Z,90.53
2018-07-05T12:04:00.051Z,91.01
2018-07-05T12:05:00.040Z,90.81
2018-07-05T12:06:00.039Z,92.16
2018-07-05T12:07:00.031Z,92.46
2018-07-05T12:08:00.046Z,93.62
2018-07-05T12:08:59.803Z,93.32
2018-07-05T12:10:00.070Z,95.88
2018-07-05T12:11:00.073Z,94.72
2018-07-05T12:12:00.064Z,95.3
2018-07-05T12:12:59.801Z,94.14
2018-07-05T12:14:00.066Z,96.08
2018-07-05T12:14:59.806Z,93.56
2018-07-05T12:16:00.066Z,91.44
2018-07-05T12:17:00.068Z,88.29
2018-07-05T12:18:00.066Z,87.23
2018-07-05T12:18:59.839Z,87.81
2018-07-05T12:20:00.099Z,89.17
2018-07-05T12:20:59.837Z,89.26
2018-07-05T12:22:00.102Z,90.23
2018-07-05T12:22:59.852Z,91.19
2018-07-05T12:24:00.170Z,91.49
2018-07-05T12:24:59.858Z,89.84
2018-07-05T12:26:00.115Z,90.13
2018-07-05T12:27:00.116Z,90.81
2018-07-05T12:28:00.128Z,89.45
2018-07-05T12:29:00.193Z,89.01
2018-07-05T12:29:59.889Z,88.63
2018-07-05T12:31:00.133Z,91.14
2018-07-05T12:32:00.131Z,90.95
2018-07-05T12:33:00.152Z,89.89
2018-07-05T12:34:00.142Z,90.08
2018-07-05T12:35:00.141Z,91.05
2018-07-05T12:36:00.165Z,90.37
2018-07-05T12:37:00.160Z,90.03
2018-07-05T12:38:00.171Z,89.4
2018-07-05T12:38:59.906Z,90.13
2018-07-05T12:40:00.168Z,89.07
2018-07-05T12:41:00.169Z,88.49
2018-07-05T12:42:00.210Z,87.81
2018-07-05T12:43:00.183Z,88.29
2018-07-05T12:44:00.179Z,88.1
2018-07-05T12:44:59.933Z,87.81
2018-07-05T12:46:00.180Z,91.19
2018-07-05T12:47:00.181Z,92.07
2018-07-05T12:48:00.193Z,93.13
2018-07-05T12:48:59.944Z,91.67
2018-07-05T12:50:00.198Z,94.67
2018-07-05T12:51:00.200Z,94.91
2018-07-05T12:52:00.364Z,93.95
2018-07-05T12:53:00.208Z,88.92
2018-07-05T12:54:00.217Z,88.53
2018-07-05T12:55:00.216Z,88.39
2018-07-05T12:56:00.229Z,91.09
2018-07-05T12:57:00.228Z,92.65
2018-07-05T12:58:00.223Z,92.93
2018-07-05T12:59:00.244Z,92.45
2018-07-05T12:59:59.987Z,93.71
2018-07-05T13:01:00.254Z,91.39
2018-07-05T13:02:00.251Z,90.91
2018-07-05T13:03:00.252Z,89.07
2018-07-05T13:04:00.310Z,89.45
2018-07-05T13:05:00.269Z,88.97
2018-07-05T13:06:00.265Z,90.17
2018-07-05T13:07:00.266Z,87.81
2018-07-05T13:08:00.271Z,87.91
2018-07-05T13:09:00.279Z,89.26
2018-07-05T13:10:00.279Z,88.68
2018-07-05T13:11:00.302Z,90.13
2018-07-05T13:12:00.036Z,89.94
2018-07-05T13:13:00.306Z,91
2018-07-05T13:14:00.299Z,91.49
2018-07-05T13:15:00.303Z,92.35
2018-07-05T13:16:00.301Z,95.54
2018-07-05T13:17:00.065Z,94.77
2018-07-05T13:18:00.074Z,96.31
2018-07-05T13:19:00.312Z,96.22
2018-07-05T13:20:00.320Z,96.61
2018-07-05T13:21:00.082Z,94.77
2018-07-05T13:22:00.323Z,93.13
2018-07-05T13:23:00.338Z,92.74
2018-07-05T13:24:00.092Z,93.41
2018-07-05T13:25:00.347Z,93.61
2018-07-05T13:26:00.109Z,93.99
2018-07-05T13:27:00.344Z,96.99
2018-07-05T13:28:00.105Z,98.05
2018-07-05T13:29:00.348Z,98.83
2018-07-05T13:30:00.361Z,98.1
2018-07-05T13:31:00.120Z,96.65
2018-07-05T13:32:00.125Z,95.49
2018-07-05T13:33:00.173Z,94.91